createdAt,value
2018-12-11T00:00:25.836Z,4.60
2018-12-11T00:03:01.143Z,5.27
2018-12-11T00:05:33.784Z,5.43
2018-12-11T00:08:08.019Z,4.50
2018-12-11T00:10:39.480Z,5.07
2018-12-11T00:13:14.239Z,4.97
2018-12-11T00:15:48.778Z,3.87
2018-12-11T00:18:23.078Z,4.00
2018-12-11T00:20:59.900Z,4.57
2018-12-11T00:23:34.000Z,3.50
2018-12-11T00:26:08.529Z,3.80
2018-12-11T00:28:44.429Z,3.93
2018-12-11T00:31:23.725Z,4.23
2018-12-11T00:33:55.622Z,3.50
2018-12-11T00:36:32.139Z,4.30
2018-12-11T00:39:06.120Z,3.97
2018-12-11T00:41:40.701Z,5.57
2018-12-11T00:44:16.721Z,4.77
2018-12-11T00:46:50.494Z,4.37
2018-12-11T00:49:25.417Z,4.43
2018-12-11T00:52:00.684Z,4.47
2018-12-11T00:54:31.855Z,5.73
2018-12-11T00:57:06.335Z,5.37
2018-12-11T00:59:45.314Z,5.73
2018-12-11T01:02:26.555Z,5.50
2018-12-11T01:05:02.414Z,4.83
2018-12-11T01:07:37.275Z,5.70
2018-12-11T01:10:18.931Z,7.57
2018-12-11T01:12:55.015Z,8.67
2018-12-11T01:15:32.044Z,5.43
2018-12-11T01:18:13.594Z,7.00
2018-12-11T01:20:47.697Z,6.10
2018-12-11T01:23:19.356Z,8.83
2018-12-11T01:25:55.718Z,9.23
2018-12-11T01:28:35.855Z,12.77
2018-12-11T01:31:11.696Z,13.00
2018-12-11T01:33:43.695Z,11.23
2018-12-11T01:36:19.482Z,10.47
2018-12-11T01:39:01.055Z,12.90
2018-12-11T01:41:39.075Z,13.80
2018-12-11T01:44:13.355Z,13.93
2018-12-11T01:46:45.622Z,12.90
2018-12-11T01:49:31.261Z,11.13
2018-12-11T01:52:03.282Z,13.97
2018-12-11T01:54:37.915Z,14.63
2018-12-11T01:57:11.541Z,14.87
2018-12-11T01:59:46.502Z,11.00
2018-12-11T02:02:18.222Z,11.57
2018-12-11T02:04:52.718Z,14.83
2018-12-11T02:07:27.849Z,17.47
2018-12-11T02:10:02.143Z,20.00
2018-12-11T02:12:36.803Z,22.13
2018-12-11T02:15:18.459Z,19.33
2018-12-11T02:17:51.542Z,17.53
2018-12-11T02:23:10.139Z,21.00
2018-12-11T02:25:44.881Z,17.63
2018-12-11T02:28:24.081Z,16.90
2018-12-11T02:30:58.777Z,15.33
2018-12-11T02:33:30.280Z,16.13
2018-12-11T02:36:04.640Z,19.00
2018-12-11T02:38:40.405Z,21.27
2018-12-11T02:41:16.902Z,19.80
2018-12-11T02:43:56.575Z,18.07
2018-12-11T02:46:29.640Z,21.90
2018-12-11T02:49:01.099Z,22.63
2018-12-11T02:51:45.442Z,24.33
2018-12-11T02:54:20.179Z,14.20
2018-12-11T02:56:52.583Z,14.80
2018-12-11T02:59:27.706Z,13.00
2018-12-11T03:02:02.268Z,15.90
2018-12-11T03:04:37.786Z,12.70
2018-12-11T03:07:12.690Z,14.83
2018-12-11T03:09:47.619Z,16.17
2018-12-11T03:12:22.059Z,14.80
2018-12-11T03:15:00.599Z,12.57
2018-12-11T03:17:35.150Z,12.80
2018-12-11T03:20:11.087Z,11.67
2018-12-11T03:22:46.626Z,15.37
2018-12-11T03:25:21.979Z,13.67
2018-12-11T03:27:56.963Z,12.17
2018-12-11T03:30:46.441Z,10.87
2018-12-11T03:33:26.280Z,10.30
2018-12-11T03:36:01.230Z,9.43
2018-12-11T03:38:32.726Z,10.00
2018-12-11T03:41:08.038Z,11.13
2018-12-11T03:43:42.323Z,9.00
2018-12-11T03:46:16.995Z,8.03
2018-12-11T03:48:52.300Z,9.67
2018-12-11T03:51:33.969Z,10.20
2018-12-11T03:54:08.426Z,8.83
2018-12-11T03:56:44.128Z,7.87
2018-12-11T03:59:19.148Z,11.17
2018-12-11T04:01:55.365Z,6.73
2018-12-11T04:04:27.346Z,6.77
2018-12-11T04:07:02.764Z,6.83
2018-12-11T04:09:36.718Z,6.20
2018-12-11T04:12:08.477Z,8.43
2018-12-11T04:14:49.557Z,6.47
2018-12-11T04:17:28.616Z,5.73
2018-12-11T04:20:05.081Z,5.00
2018-12-11T04:22:40.924Z,7.10
2018-12-11T04:25:15.560Z,5.60
2018-12-11T04:27:48.298Z,7.93
2018-12-11T04:30:19.340Z,6.63
2018-12-11T04:32:55.240Z,7.70
2018-12-11T04:35:29.944Z,6.47
2018-12-11T04:38:07.707Z,6.80
2018-12-11T04:40:42.311Z,9.33
2018-12-11T04:43:13.980Z,7.33
2018-12-11T04:45:49.188Z,7.40
2018-12-11T04:48:23.805Z,7.70
2018-12-11T04:51:01.337Z,5.60
2018-12-11T04:53:37.356Z,7.57
2018-12-11T04:56:12.943Z,7.00
2018-12-11T04:58:48.065Z,7.37
2018-12-11T05:01:26.848Z,10.83
2018-12-11T05:04:01.831Z,7.43
2018-12-11T05:06:39.201Z,7.17
2018-12-11T05:11:53.661Z,8.17
2018-12-11T05:14:29.616Z,5.33
2018-12-11T05:17:06.585Z,5.60
2018-12-11T05:19:41.803Z,6.00
2018-12-11T05:22:20.746Z,6.10
2018-12-11T05:24:56.574Z,6.83
2018-12-11T05:27:34.143Z,5.27
2018-12-11T05:30:15.989Z,7.90
2018-12-11T05:32:54.328Z,5.60
2018-12-11T05:35:29.198Z,7.07
2018-12-11T05:38:05.545Z,5.40
2018-12-11T05:40:46.360Z,5.50
2018-12-11T05:43:19.534Z,6.23
2018-12-11T05:45:53.579Z,5.67
2018-12-11T05:48:34.498Z,6.73
2018-12-11T05:51:14.025Z,5.00
2018-12-11T05:53:52.229Z,4.70
2018-12-11T05:56:23.945Z,5.23
2018-12-11T05:58:58.384Z,8.10
2018-12-11T06:01:38.944Z,10.30
2018-12-11T06:04:14.089Z,8.27
2018-12-11T06:06:48.984Z,7.70
2018-12-11T06:09:25.047Z,7.60
2018-12-11T06:12:03.263Z,5.70
2018-12-11T06:14:37.446Z,5.47
2018-12-11T06:17:09.421Z,5.63
2018-12-11T06:19:44.846Z,9.63
2018-12-11T06:22:19.825Z,4.50
2018-12-11T06:24:51.774Z,4.93
2018-12-11T06:27:23.905Z,5.47
2018-12-11T06:29:58.561Z,5.97
2018-12-11T06:32:37.245Z,4.13
2018-12-11T06:35:12.403Z,5.20
2018-12-11T06:37:47.624Z,4.67
2018-12-11T06:40:23.902Z,5.80
2018-12-11T06:42:58.821Z,5.27
2018-12-11T06:45:34.636Z,3.93
2018-12-11T06:48:09.388Z,4.07
2018-12-11T06:50:45.410Z,3.10
2018-12-11T06:53:23.042Z,3.43
2018-12-11T06:55:54.480Z,4.00
2018-12-11T06:58:28.182Z,4.43
2018-12-11T07:00:59.379Z,4.27
2018-12-11T07:06:09.734Z,4.33
2018-12-11T07:08:44.861Z,6.43
2018-12-11T07:11:20.683Z,4.17
2018-12-11T07:13:52.366Z,5.97
2018-12-11T07:16:28.371Z,4.23
2018-12-11T07:19:07.859Z,5.77
2018-12-11T07:21:41.879Z,16.83
2018-12-11T07:24:16.678Z,8.60
2018-12-11T07:26:51.451Z,5.20
2018-12-11T07:29:26.274Z,7.10
2018-12-11T07:32:00.257Z,6.27
2018-12-11T07:34:34.277Z,8.13
2018-12-11T07:37:09.835Z,7.83
2018-12-11T07:39:41.478Z,8.63
2018-12-11T07:42:22.007Z,10.93
2018-12-11T07:45:00.859Z,12.00
2018-12-11T07:47:35.479Z,11.37
2018-12-11T07:50:10.115Z,7.13
2018-12-11T07:52:41.693Z,7.00
2018-12-11T07:55:17.109Z,6.50
2018-12-11T07:57:49.754Z,7.57
2018-12-11T08:00:26.795Z,9.73
2018-12-11T08:03:03.475Z,7.63
2018-12-11T08:05:38.203Z,7.00
2018-12-11T08:08:14.239Z,6.70
2018-12-11T08:10:48.910Z,9.80
2018-12-11T08:13:24.178Z,12.67
2018-12-11T08:15:58.119Z,13.17
2018-12-11T08:18:28.957Z,15.63
2018-12-11T08:20:59.993Z,14.20
2018-12-11T08:23:34.006Z,13.83
2018-12-11T08:26:08.159Z,13.37
2018-12-11T08:28:42.460Z,9.57
2018-12-11T08:31:16.553Z,12.93
2018-12-11T08:33:53.321Z,12.00
2018-12-11T08:36:27.843Z,16.83
2018-12-11T08:39:03.222Z,14.40
2018-12-11T08:41:38.378Z,15.17
2018-12-11T08:44:14.298Z,11.83
2018-12-11T08:46:45.984Z,10.53
2018-12-11T08:49:20.136Z,9.60
2018-12-11T08:51:55.481Z,8.90
2018-12-11T08:54:33.449Z,7.43
2018-12-11T08:57:04.774Z,8.60
2018-12-11T08:59:39.480Z,6.40
2018-12-11T09:02:11.616Z,7.13
2018-12-11T09:04:46.920Z,6.67
2018-12-11T09:07:25.239Z,7.07
2018-12-11T09:09:56.733Z,6.93
2018-12-11T09:12:36.835Z,4.93
2018-12-11T09:15:10.997Z,6.53
2018-12-11T09:17:44.899Z,6.60
2018-12-11T09:20:22.813Z,7.40
2018-12-11T09:23:01.795Z,6.23
2018-12-11T09:25:32.944Z,5.77
2018-12-11T09:28:11.004Z,7.07
2018-12-11T09:30:42.573Z,8.73
2018-12-11T09:33:17.974Z,10.30
2018-12-11T09:35:53.157Z,7.30
2018-12-11T09:38:27.820Z,7.23
2018-12-11T09:41:05.360Z,5.80
2018-12-11T09:43:37.014Z,8.03
2018-12-11T09:46:11.061Z,7.20
2018-12-11T09:48:46.596Z,6.37
2018-12-11T09:51:21.074Z,7.57
2018-12-11T09:53:54.875Z,8.90
2018-12-11T09:56:29.520Z,8.63
2018-12-11T09:59:03.783Z,6.80
2018-12-11T10:01:34.874Z,8.13
2018-12-11T10:04:09.869Z,6.87
2018-12-11T10:06:44.976Z,6.57
2018-12-11T10:09:20.356Z,7.57
2018-12-11T10:11:51.922Z,7.27
2018-12-11T10:14:25.818Z,5.70
2018-12-11T10:17:03.262Z,6.10
2018-12-11T10:19:38.142Z,5.33
2018-12-11T10:22:12.214Z,8.90
2018-12-11T10:24:46.160Z,7.63
2018-12-11T10:27:21.294Z,6.13
2018-12-11T10:29:53.083Z,5.63
2018-12-11T10:32:31.503Z,5.53
2018-12-11T10:35:06.843Z,5.83
2018-12-11T10:37:42.198Z,4.90
2018-12-11T10:40:16.641Z,8.83
2018-12-11T10:42:47.435Z,5.13
2018-12-11T10:45:21.420Z,4.33
2018-12-11T10:47:55.844Z,4.50
2018-12-11T10:50:27.001Z,3.70
2018-12-11T10:53:01.992Z,5.67
2018-12-11T10:55:36.645Z,3.80
2018-12-11T10:58:17.281Z,6.00
2018-12-11T11:04:00.624Z,3.33
2018-12-11T11:06:31.939Z,2.87
2018-12-11T11:09:04.302Z,4.07
2018-12-11T11:11:38.607Z,4.00
2018-12-11T11:14:12.778Z,3.37
2018-12-11T11:16:44.422Z,2.73
2018-12-11T11:19:18.183Z,2.00
2018-12-11T11:21:49.404Z,2.17
2018-12-11T11:24:20.167Z,1.83
2018-12-11T11:26:51.230Z,2.53
2018-12-11T11:29:25.259Z,3.20
2018-12-11T11:31:56.594Z,2.60
2018-12-11T11:34:32.822Z,3.70
2018-12-11T11:37:06.825Z,2.87
2018-12-11T11:39:41.322Z,3.90
2018-12-11T11:42:24.659Z,2.90
2018-12-11T11:45:00.476Z,4.50
2018-12-11T11:47:35.759Z,4.20
2018-12-11T11:50:12.822Z,2.70
2018-12-11T11:52:46.800Z,5.97
2018-12-11T11:55:17.695Z,3.27
2018-12-11T11:57:55.396Z,6.07
2018-12-11T12:03:27.486Z,1.60
2018-12-11T12:06:01.600Z,2.87
2018-12-11T12:08:32.846Z,1.87
2018-12-11T12:11:04.294Z,1.57
2018-12-11T12:13:38.521Z,1.57
2018-12-11T12:16:12.599Z,3.40
2018-12-11T12:18:48.684Z,2.20
2018-12-11T12:21:25.443Z,2.10
2018-12-11T12:23:56.407Z,1.60
2018-12-11T12:26:30.344Z,2.60
2018-12-11T12:29:01.803Z,3.83
2018-12-11T12:31:33.786Z,1.30
2018-12-11T12:34:05.324Z,1.20
2018-12-11T12:36:39.026Z,1.13
2018-12-11T12:39:10.100Z,3.33
2018-12-11T12:41:43.892Z,1.40
2018-12-11T12:44:14.999Z,3.43
2018-12-11T12:46:49.846Z,1.30
2018-12-11T12:49:20.964Z,3.10
2018-12-11T12:51:54.862Z,1.30
2018-12-11T12:54:28.898Z,4.37
2018-12-11T12:57:04.165Z,4.03
2018-12-11T12:59:39.310Z,1.20
2018-12-11T13:02:10.647Z,2.73
2018-12-11T13:04:42.379Z,1.20
2018-12-11T13:07:13.415Z,2.13
2018-12-11T13:09:47.162Z,1.60
2018-12-11T13:12:22.409Z,3.23
2018-12-11T13:14:54.142Z,1.23
2018-12-11T13:17:27.842Z,2.33
2018-12-11T13:19:59.019Z,2.17
2018-12-11T13:22:32.829Z,2.73
2018-12-11T13:25:06.809Z,1.10
2018-12-11T13:27:37.645Z,1.73
2018-12-11T13:30:11.661Z,1.07
2018-12-11T13:32:49.607Z,1.00
2018-12-11T13:35:23.629Z,1.67
2018-12-11T13:37:57.732Z,1.50
2018-12-11T13:40:31.441Z,2.90
2018-12-11T13:43:02.789Z,1.57
2018-12-11T13:45:37.240Z,2.70
2018-12-11T13:48:11.307Z,1.60
2018-12-11T13:50:48.600Z,6.47
2018-12-11T13:53:22.343Z,2.50
2018-12-11T13:55:58.408Z,3.17
2018-12-11T13:58:29.661Z,3.23
2018-12-11T14:01:03.173Z,1.20
2018-12-11T14:03:37.102Z,1.60
2018-12-11T14:06:11.202Z,1.70
2018-12-11T14:08:42.138Z,1.20
2018-12-11T14:11:13.066Z,1.20
2018-12-11T14:13:44.184Z,1.00
2018-12-11T14:16:15.209Z,1.03
2018-12-11T14:18:50.259Z,1.27
2018-12-11T14:21:24.745Z,1.93
2018-12-11T14:23:59.421Z,3.20
2018-12-11T14:26:30.889Z,1.60
2018-12-11T14:29:05.646Z,1.33
2018-12-11T14:31:39.651Z,2.13
2018-12-11T14:34:18.503Z,1.30
2018-12-11T14:36:49.474Z,1.97
2018-12-11T14:39:25.719Z,2.47
2018-12-11T14:42:02.317Z,3.80
2018-12-11T14:44:36.784Z,2.30
2018-12-11T14:47:12.341Z,1.93
2018-12-11T14:49:44.043Z,1.50
2018-12-11T14:52:15.558Z,2.63
2018-12-11T14:54:49.594Z,1.80
2018-12-11T14:57:24.183Z,4.07
2018-12-11T14:59:57.955Z,3.70
2018-12-11T15:02:32.032Z,2.03
2018-12-11T15:05:03.168Z,1.70
2018-12-11T15:07:39.945Z,1.37
2018-12-11T15:10:14.724Z,1.63
2018-12-11T15:12:46.823Z,1.87
2018-12-11T15:15:25.667Z,3.07
2018-12-11T15:17:57.164Z,2.47
2018-12-11T15:20:44.183Z,4.67
2018-12-11T15:23:18.684Z,3.47
2018-12-11T15:25:52.635Z,3.53
2018-12-11T15:28:26.916Z,5.13
2018-12-11T15:31:08.803Z,3.60
2018-12-11T15:33:39.734Z,4.70
2018-12-11T15:36:15.679Z,6.07
2018-12-11T15:38:49.761Z,2.17
2018-12-11T15:41:26.162Z,3.53
2018-12-11T15:43:57.551Z,3.93
2018-12-11T15:46:32.102Z,3.90
2018-12-11T15:49:06.082Z,5.30
2018-12-11T15:51:37.589Z,6.43
2018-12-11T15:54:12.000Z,4.70
2018-12-11T15:56:47.360Z,3.47
2018-12-11T15:59:21.720Z,3.13
2018-12-11T16:02:00.202Z,1.80
2018-12-11T16:04:35.441Z,2.10
2018-12-11T16:10:09.696Z,2.73
2018-12-11T16:12:45.956Z,3.73
2018-12-11T16:15:20.015Z,3.13
2018-12-11T16:17:54.896Z,2.30
2018-12-11T16:20:26.236Z,3.90
2018-12-11T16:23:01.719Z,3.07
2018-12-11T16:25:35.981Z,2.83
2018-12-11T16:28:09.766Z,1.87
2018-12-11T16:30:40.966Z,2.67
2018-12-11T16:33:15.325Z,2.70
2018-12-11T16:35:49.370Z,3.00
2018-12-11T16:38:23.283Z,10.60
2018-12-11T16:41:01.198Z,5.33
2018-12-11T16:43:36.476Z,7.77
2018-12-11T16:46:11.036Z,2.90
2018-12-11T16:48:45.152Z,2.00
2018-12-11T16:51:18.905Z,2.90
2018-12-11T16:53:52.762Z,3.50
2018-12-11T16:56:24.224Z,3.00
2018-12-11T16:58:55.724Z,2.03
2018-12-11T17:01:27.221Z,1.53
2018-12-11T17:04:05.261Z,2.60
2018-12-11T17:06:36.676Z,3.23
2018-12-11T17:09:15.072Z,1.83
2018-12-11T17:11:48.891Z,1.90
2018-12-11T17:14:20.581Z,2.20
2018-12-11T17:16:52.381Z,2.37
2018-12-11T17:19:24.301Z,1.60
2018-12-11T17:22:00.320Z,3.40
2018-12-11T17:24:35.599Z,2.53
2018-12-11T17:27:14.225Z,2.03
2018-12-11T17:29:48.924Z,1.60
2018-12-11T17:32:24.133Z,4.17
2018-12-11T17:35:00.415Z,2.23
2018-12-11T17:37:32.759Z,2.50
2018-12-11T17:40:05.719Z,1.60
2018-12-11T17:42:39.532Z,1.70
2018-12-11T17:45:13.639Z,2.30
2018-12-11T17:47:50.075Z,1.60
2018-12-11T17:50:25.881Z,3.10
2018-12-11T17:53:01.702Z,1.67
2018-12-11T17:55:40.946Z,1.50
2018-12-11T17:58:17.928Z,4.93
2018-12-11T18:00:54.524Z,1.40
2018-12-11T18:03:28.014Z,2.50
2018-12-11T18:05:59.947Z,2.37
2018-12-11T18:08:32.075Z,1.70
2018-12-11T18:11:06.781Z,1.70
2018-12-11T18:13:45.321Z,1.60
2018-12-11T18:16:20.382Z,2.47
2018-12-11T18:18:56.233Z,2.13
2018-12-11T18:21:33.186Z,1.80
2018-12-11T18:24:08.784Z,3.97
2018-12-11T18:26:46.805Z,2.93
2018-12-11T18:29:22.951Z,3.33
2018-12-11T18:31:55.181Z,3.20
2018-12-11T18:34:31.741Z,2.93
2018-12-11T18:37:06.475Z,3.90
2018-12-11T18:39:42.099Z,2.63
2018-12-11T18:42:13.788Z,4.73
2018-12-11T18:44:49.061Z,2.23
2018-12-11T18:47:23.542Z,2.37
2018-12-11T18:49:58.558Z,1.70
2018-12-11T18:52:34.137Z,3.13
2018-12-11T18:55:09.464Z,3.30
2018-12-11T18:57:44.662Z,3.23
2018-12-11T19:00:24.122Z,3.03
2018-12-11T19:02:58.405Z,2.53
2018-12-11T19:05:39.976Z,3.93
2018-12-11T19:08:11.697Z,2.23
2018-12-11T19:10:47.555Z,3.63
2018-12-11T19:13:22.227Z,2.83
2018-12-11T19:15:58.009Z,2.70
2018-12-11T19:18:30.333Z,1.83
2018-12-11T19:21:06.165Z,2.90
2018-12-11T19:23:41.762Z,2.67
2018-12-11T19:26:21.003Z,3.70
2018-12-11T19:28:58.083Z,3.27
2018-12-11T19:31:33.723Z,3.23
2018-12-11T19:34:07.748Z,2.93
2018-12-11T19:36:41.791Z,2.60
2018-12-11T19:39:15.443Z,2.07
2018-12-11T19:41:46.744Z,2.63
2018-12-11T19:44:19.535Z,3.10
2018-12-11T19:46:53.337Z,4.17
2018-12-11T19:49:24.466Z,4.47
2018-12-11T19:51:58.456Z,2.77
2018-12-11T19:54:30.698Z,3.43
2018-12-11T19:57:02.603Z,4.00
2018-12-11T19:59:37.024Z,5.53
2018-12-11T20:02:10.885Z,4.10
2018-12-11T20:04:42.381Z,5.00
2018-12-11T20:07:19.102Z,5.73
2018-12-11T20:09:59.370Z,4.47
2018-12-11T20:12:34.997Z,6.27
2018-12-11T20:15:09.822Z,3.80
2018-12-11T20:17:46.672Z,2.37
2018-12-11T20:20:24.627Z,2.57
2018-12-11T20:23:00.088Z,2.80
2018-12-11T20:25:37.702Z,4.10
2018-12-11T20:28:16.188Z,2.30
2018-12-11T20:30:53.026Z,2.87
2018-12-11T20:33:28.139Z,3.57
2018-12-11T20:36:02.661Z,5.00
2018-12-11T20:38:39.727Z,4.40
2018-12-11T20:41:14.621Z,3.83
2018-12-11T20:43:50.282Z,3.17
2018-12-11T20:46:22.704Z,2.87
2018-12-11T20:48:57.921Z,3.07
2018-12-11T20:51:32.861Z,3.97
2018-12-11T20:54:08.758Z,3.43
2018-12-11T20:56:44.298Z,3.63
2018-12-11T20:59:17.737Z,3.73
2018-12-11T21:01:56.203Z,4.33
2018-12-11T21:04:31.621Z,4.40
2018-12-11T21:07:03.700Z,5.17
2018-12-11T21:09:36.603Z,6.67
2018-12-11T21:12:11.013Z,9.13
2018-12-11T21:14:46.820Z,6.80
2018-12-11T21:17:19.236Z,6.30
2018-12-11T21:19:58.078Z,6.47
2018-12-11T21:22:32.054Z,6.63
2018-12-11T21:25:07.734Z,5.30
2018-12-11T21:27:42.644Z,4.70
2018-12-11T21:30:17.864Z,4.97
2018-12-11T21:32:58.558Z,4.00
2018-12-11T21:35:34.398Z,3.50
2018-12-11T21:38:09.001Z,3.87
2018-12-11T21:40:42.061Z,6.53
2018-12-11T21:43:13.916Z,2.57
2018-12-11T21:45:54.433Z,4.03
2018-12-11T21:48:26.654Z,3.43
2018-12-11T21:51:01.956Z,3.10
2018-12-11T21:53:36.833Z,2.63
2018-12-11T21:56:11.367Z,3.13
2018-12-11T21:58:46.245Z,6.03
2018-12-11T22:01:21.626Z,3.70
2018-12-11T22:04:01.066Z,4.40
2018-12-11T22:06:36.496Z,4.97
2018-12-11T22:09:08.488Z,5.27
2018-12-11T22:11:43.296Z,5.20
2018-12-11T22:14:18.236Z,5.87
2018-12-11T22:16:52.854Z,3.70
2018-12-11T22:19:30.876Z,3.33
2018-12-11T22:22:07.195Z,3.00
2018-12-11T22:24:38.994Z,2.70
2018-12-11T22:27:10.922Z,3.03
2018-12-11T22:29:45.282Z,2.97
2018-12-11T22:32:16.724Z,2.30
2018-12-11T22:34:49.516Z,3.97
2018-12-11T22:37:26.076Z,2.27
2018-12-11T22:40:00.956Z,4.53
2018-12-11T22:42:34.875Z,2.80
2018-12-11T22:45:11.076Z,2.83
2018-12-11T22:47:49.664Z,3.27
2018-12-11T22:50:23.926Z,3.70
2018-12-11T22:52:58.824Z,2.97
2018-12-11T22:55:30.709Z,4.30
2018-12-11T22:58:04.805Z,3.83
2018-12-11T23:00:38.722Z,3.80
2018-12-11T23:03:10.121Z,5.30
2018-12-11T23:05:43.344Z,2.93
2018-12-11T23:08:18.885Z,2.53
2018-12-11T23:10:53.185Z,3.10
2018-12-11T23:13:25.722Z,3.50
2018-12-11T23:15:59.845Z,4.20
2018-12-11T23:18:38.917Z,3.27
2018-12-11T23:21:12.915Z,6.60
2018-12-11T23:23:44.635Z,4.27
2018-12-11T23:26:18.855Z,3.50
2018-12-11T23:28:54.835Z,3.50
2018-12-11T23:31:29.880Z,4.13
2018-12-11T23:34:05.814Z,4.27
2018-12-11T23:36:40.314Z,4.67
2018-12-11T23:39:15.175Z,3.50
2018-12-11T23:41:49.775Z,4.83
2018-12-11T23:44:25.904Z,4.03
2018-12-11T23:46:57.514Z,4.23
2018-12-11T23:49:39.406Z,4.80
2018-12-11T23:52:14.735Z,3.37
2018-12-11T23:54:50.196Z,3.87
2018-12-11T23:57:23.179Z,4.27
2018-12-11T23:59:59.376Z,3.83
